Time;durP1;ratioP1;P1;durP2;ratioP2;P2;SDS_P1;SDS_P2;PMS_P1;PMS_P2;Temp;Humidity;BMP_temperature;BMP_pressure;BME280_temperature;BME280_humidity;BME280_pressure;Samples;Min_cycle;Max_cycle;Signal;HPM_P1;HPM_P2
2021/07/20 00:00:26;;;;;;;8.90;4.20;;;14.10;79.60;;;;;;5114774;28;20174;-89
2021/07/20 00:02:56;;;;;;;9.83;4.70;;;14.00;79.40;;;;;;5096718;28;20181;-89
2021/07/20 00:05:27;;;;;;;11.17;4.20;;;14.00;79.60;;;;;;5096435;28;20182;-89
2021/07/20 00:07:59;;;;;;;6.20;3.50;;;14.00;79.50;;;;;;5114676;28;20208;-89
2021/07/20 00:10:38;;;;;;;7.93;4.10;;;14.00;80.30;;;;;;5096463;28;20688;-89
2021/07/20 00:13:05;;;;;;;8.33;4.10;;;14.00;79.70;;;;;;5114984;28;20170;-89
2021/07/20 00:15:31;;;;;;;7.73;3.43;;;14.00;79.10;;;;;;5114638;28;20173;-89
2021/07/20 00:17:59;;;;;;;9.27;4.50;;;14.00;79.50;;;;;;5096217;28;20201;-89
2021/07/20 00:20:27;;;;;;;10.57;4.50;;;13.90;79.70;;;;;;5114400;28;20707;-89
2021/07/20 00:22:53;;;;;;;12.63;4.33;;;13.80;80.50;;;;;;5096215;28;20277;-89
2021/07/20 00:25:19;;;;;;;14.00;4.40;;;13.80;81.10;;;;;;5114547;28;20176;-89
2021/07/20 00:27:45;;;;;;;12.67;5.23;;;13.70;81.40;;;;;;5114847;28;20217;-89
2021/07/20 00:30:13;;;;;;;11.53;4.77;;;13.70;81.40;;;;;;5096406;28;20653;-90
2021/07/20 00:32:40;;;;;;;13.57;4.90;;;13.70;81.10;;;;;;5096219;28;20178;-90
2021/07/20 00:35:08;;;;;;;11.83;5.23;;;13.70;81.40;;;;;;5114837;28;20174;-89
2021/07/20 00:37:35;;;;;;;11.90;4.37;;;13.70;81.00;;;;;;5097268;28;20588;-89
2021/07/20 00:40:01;;;;;;;9.00;4.33;;;13.70;80.80;;;;;;5097861;28;20174;-89
2021/07/20 00:42:27;;;;;;;7.67;4.33;;;13.70;80.30;;;;;;5096850;28;20722;-89
2021/07/20 00:44:52;;;;;;;6.40;4.00;;;13.70;80.20;;;;;;5096092;28;20189;-89
2021/07/20 00:47:19;;;;;;;6.50;3.90;;;13.70;80.30;;;;;;5114041;28;20174;-89
2021/07/20 00:49:44;;;;;;;9.63;4.33;;;13.70;80.60;;;;;;5096240;28;20181;-89
2021/07/20 00:52:10;;;;;;;8.50;4.13;;;13.60;80.70;;;;;;5095729;28;20197;-89
2021/07/20 00:54:37;;;;;;;7.90;4.23;;;13.60;80.70;;;;;;5095865;28;20177;-89
2021/07/20 00:57:03;;;;;;;5.17;3.87;;;13.60;80.30;;;;;;5113570;28;20189;-89
2021/07/20 00:59:30;;;;;;;5.93;4.17;;;13.60;80.10;;;;;;5095539;28;20239;-89
2021/07/20 01:01:56;;;;;;;9.47;4.53;;;13.50;80.40;;;;;;5114263;28;20181;-89
2021/07/20 01:04:22;;;;;;;10.60;3.80;;;13.50;80.10;;;;;;5114011;28;20178;-89
2021/07/20 01:06:49;;;;;;;6.57;4.00;;;13.50;80.10;;;;;;5113970;28;20182;-89
2021/07/20 01:09:16;;;;;;;14.83;5.30;;;13.40;80.50;;;;;;5113903;28;20213;-89
2021/07/20 01:11:42;;;;;;;9.10;3.60;;;13.50;80.40;;;;;;5113783;28;20665;-89
2021/07/20 01:14:08;;;;;;;9.97;4.23;;;13.40;80.20;;;;;;5095776;28;20182;-89
2021/07/20 01:16:36;;;;;;;8.53;4.03;;;13.50;80.00;;;;;;5095498;28;20642;-89
2021/07/20 01:19:05;;;;;;;10.97;4.43;;;13.50;79.60;;;;;;5113867;28;20206;-90
2021/07/20 01:21:34;;;;;;;10.50;4.00;;;13.40;80.20;;;;;;5114130;28;20570;-89
2021/07/20 01:23:59;;;;;;;8.73;4.60;;;13.40;79.90;;;;;;5113775;28;20543;-89
2021/07/20 01:26:25;;;;;;;11.63;4.60;;;13.40;79.60;;;;;;5113831;28;20182;-89
2021/07/20 01:28:53;;;;;;;8.97;4.20;;;13.30;79.90;;;;;;5095585;28;20208;-89
2021/07/20 01:31:26;;;;;;;10.80;5.00;;;13.30;79.90;;;;;;5113751;28;20204;-89
2021/07/20 01:33:53;;;;;;;7.47;4.13;;;13.30;80.00;;;;;;5095755;28;20694;-89
2021/07/20 01:36:22;;;;;;;10.83;5.23;;;13.30;80.60;;;;;;5095676;28;20179;-89
2021/07/20 01:38:49;;;;;;;9.33;4.60;;;13.20;82.20;;;;;;5113730;28;20217;-89
2021/07/20 01:41:17;;;;;;;14.07;5.13;;;13.20;82.60;;;;;;5095317;28;20217;-89
2021/07/20 01:44:04;;;;;;;7.83;4.53;;;13.10;83.30;;;;;;5113619;28;20188;-89
2021/07/20 01:46:35;;;;;;;8.80;4.53;;;13.10;83.50;;;;;;5112933;28;20225;-89
2021/07/20 01:49:05;;;;;;;13.03;5.13;;;13.10;82.90;;;;;;5095321;28;20669;-89
2021/07/20 01:51:32;;;;;;;12.17;4.83;;;13.10;83.30;;;;;;5113468;28;20216;-89
2021/07/20 01:53:59;;;;;;;9.07;4.93;;;13.10;83.40;;;;;;5095271;28;20228;-89
2021/07/20 01:56:25;;;;;;;8.50;4.87;;;13.10;84.20;;;;;;5113663;28;20177;-89
2021/07/20 01:58:52;;;;;;;9.20;4.37;;;13.20;84.00;;;;;;5095289;28;20194;-89
2021/07/20 02:01:26;;;;;;;10.30;4.47;;;13.20;83.50;;;;;;5113360;28;20641;-89
2021/07/20 02:09:29;;;;;;;11.80;6.47;;;13.20;82.70;;;;;;5113899;28;20224;-89
2021/07/20 02:11:55;;;;;;;10.07;5.17;;;13.20;82.50;;;;;;5117090;28;20194;-89
2021/07/20 02:14:28;;;;;;;9.23;5.80;;;13.20;82.20;;;;;;5117139;28;20226;-89
2021/07/20 02:16:56;;;;;;;9.03;5.43;;;13.20;82.10;;;;;;5116996;28;20146;-89
2021/07/20 02:19:31;;;;;;;11.90;5.70;;;13.20;82.60;;;;;;5116791;28;20194;-89
2021/07/20 02:21:58;;;;;;;13.30;5.10;;;13.10;82.80;;;;;;5098891;28;20170;-89
2021/07/20 02:24:29;;;;;;;7.67;5.27;;;13.10;83.20;;;;;;5116818;28;20223;-89
2021/07/20 02:26:57;;;;;;;6.70;5.13;;;13.10;82.80;;;;;;5116818;28;20174;-89
2021/07/20 02:29:25;;;;;;;8.70;5.17;;;13.10;82.40;;;;;;5116700;28;20561;-89
2021/07/20 02:31:54;;;;;;;11.43;7.30;;;13.00;82.30;;;;;;5116688;28;20632;-89
2021/07/20 02:34:21;;;;;;;8.97;5.80;;;12.90;83.30;;;;;;5116668;28;20167;-89
2021/07/20 02:36:49;;;;;;;9.10;5.47;;;12.90;83.90;;;;;;5116676;28;20182;-89
2021/07/20 02:39:15;;;;;;;7.27;5.87;;;12.90;83.40;;;;;;5098235;28;20190;-89
2021/07/20 02:41:42;;;;;;;9.57;6.03;;;12.90;83.30;;;;;;5098217;28;20598;-89
2021/07/20 02:44:08;;;;;;;9.97;6.60;;;12.90;83.50;;;;;;5098137;28;20223;-89
2021/07/20 02:46:36;;;;;;;8.90;5.90;;;12.90;83.30;;;;;;5116417;28;20515;-89
2021/07/20 02:49:02;;;;;;;6.73;5.50;;;12.90;82.70;;;;;;5098093;28;20205;-89
2021/07/20 02:51:28;;;;;;;7.00;5.23;;;12.90;82.50;;;;;;5098185;28;20265;-89
2021/07/20 02:53:58;;;;;;;9.57;5.47;;;12.90;82.10;;;;;;5116254;28;20177;-89
2021/07/20 02:56:24;;;;;;;9.40;5.77;;;12.80;81.90;;;;;;5116178;28;20170;-89
2021/07/20 02:58:52;;;;;;;12.43;5.47;;;12.80;81.90;;;;;;5116039;28;20190;-89
2021/07/20 03:01:18;;;;;;;8.80;4.87;;;12.80;82.20;;;;;;5116106;28;20330;-89
2021/07/20 03:03:45;;;;;;;12.00;5.73;;;12.80;82.00;;;;;;5116053;28;20706;-89
2021/07/20 03:06:12;;;;;;;13.87;4.80;;;12.80;82.00;;;;;;5097724;28;20182;-89
2021/07/20 03:08:39;;;;;;;10.73;4.70;;;12.80;82.00;;;;;;5115968;28;20210;-89
2021/07/20 03:11:08;;;;;;;5.70;4.10;;;12.80;82.20;;;;;;5115778;28;20198;-89
2021/07/20 03:13:39;;;;;;;11.53;5.60;;;12.80;82.00;;;;;;5097602;28;20178;-89
2021/07/20 03:16:08;;;;;;;8.37;4.87;;;12.70;81.90;;;;;;5115827;28;20157;-89
2021/07/20 03:18:37;;;;;;;9.10;4.73;;;12.70;81.90;;;;;;5097350;28;20198;-89
2021/07/20 03:21:05;;;;;;;9.37;5.20;;;12.70;81.90;;;;;;5115348;28;20185;-89
2021/07/20 03:23:32;;;;;;;6.67;4.80;;;12.70;82.10;;;;;;5115622;28;20238;-89
2021/07/20 03:25:59;;;;;;;6.70;4.67;;;12.70;82.20;;;;;;5097303;28;20209;-89
2021/07/20 03:28:26;;;;;;;10.67;5.23;;;12.70;82.20;;;;;;5115450;28;20280;-89
2021/07/20 03:30:53;;;;;;;11.90;6.10;;;12.60;82.40;;;;;;5115483;28;20198;-89
2021/07/20 03:33:21;;;;;;;7.83;4.93;;;12.60;82.30;;;;;;5115397;28;20174;-89
2021/07/20 03:35:49;;;;;;;9.37;5.23;;;12.60;82.30;;;;;;5115342;28;20170;-89
2021/07/20 03:38:20;;;;;;;8.77;5.33;;;12.70;82.40;;;;;;5097113;28;20243;-89
2021/07/20 03:40:49;;;;;;;8.07;4.87;;;12.70;82.60;;;;;;5115241;28;20165;-89
2021/07/20 03:43:17;;;;;;;9.27;4.40;;;12.80;82.50;;;;;;5115158;28;20180;-89
2021/07/20 03:45:44;;;;;;;8.67;4.63;;;13.00;82.20;;;;;;5096868;28;20182;-89
2021/07/20 03:48:13;;;;;;;6.77;4.23;;;13.10;82.40;;;;;;5115136;28;20197;-89
2021/07/20 03:50:41;;;;;;;7.60;4.77;;;13.20;82.60;;;;;;5097697;28;20293;-89
2021/07/20 03:53:08;;;;;;;4.97;4.33;;;13.30;82.40;;;;;;5115150;28;20262;-89
2021/07/20 03:55:36;;;;;;;6.27;4.47;;;13.50;82.90;;;;;;5114932;28;20178;-89
2021/07/20 03:58:04;;;;;;;11.30;5.00;;;13.60;82.90;;;;;;5096613;28;20194;-89
2021/07/20 04:00:31;;;;;;;7.67;5.40;;;13.40;83.90;;;;;;5096580;28;20182;-89
2021/07/20 04:05:45;;;;;;;9.40;4.63;;;13.90;81.90;;;;;;5115045;28;20212;-89
2021/07/20 04:08:14;;;;;;;10.50;4.67;;;14.20;82.00;;;;;;5114696;28;20300;-89
2021/07/20 04:10:40;;;;;;;7.50;4.63;;;14.30;81.90;;;;;;5096382;28;20569;-89
2021/07/20 04:13:10;;;;;;;7.93;4.70;;;14.30;81.80;;;;;;5114941;28;20205;-89
2021/07/20 04:15:40;;;;;;;9.83;5.63;;;14.30;81.90;;;;;;5114628;28;20177;-89
2021/07/20 04:18:07;;;;;;;9.77;5.47;;;14.20;83.20;;;;;;5096447;28;20209;-89
2021/07/20 04:20:32;;;;;;;13.30;6.73;;;14.10;82.90;;;;;;5114470;28;20174;-89
2021/07/20 04:22:58;;;;;;;13.33;6.30;;;14.10;83.10;;;;;;5096381;28;20246;-90
2021/07/20 04:25:24;;;;;;;10.77;6.20;;;14.10;83.30;;;;;;5114607;28;20170;-89
2021/07/20 04:27:51;;;;;;;11.93;6.73;;;14.20;83.60;;;;;;5096124;28;20266;-89
2021/07/20 04:30:17;;;;;;;11.30;6.17;;;14.20;83.60;;;;;;5096110;28;20656;-89
2021/07/20 04:32:46;;;;;;;12.47;7.43;;;14.10;83.20;;;;;;5095383;28;20169;-89
2021/07/20 04:35:16;;;;;;;15.30;7.47;;;14.20;83.60;;;;;;5114259;28;20170;-89
2021/07/20 04:37:43;;;;;;;15.70;7.73;;;14.20;84.20;;;;;;5114124;28;20192;-89
2021/07/20 04:40:13;;;;;;;10.10;7.77;;;14.20;84.50;;;;;;5114225;28;20170;-89
2021/07/20 04:42:40;;;;;;;10.10;7.00;;;14.20;85.10;;;;;;5096193;28;20185;-89
2021/07/20 04:45:08;;;;;;;12.17;6.63;;;14.30;85.20;;;;;;5114187;28;20162;-89
2021/07/20 04:47:36;;;;;;;12.20;7.40;;;14.30;85.10;;;;;;5113979;28;20608;-89
2021/07/20 04:50:04;;;;;;;10.13;7.60;;;14.30;85.20;;;;;;5113911;28;20162;-89
2021/07/20 04:52:31;;;;;;;10.67;8.00;;;14.50;86.50;;;;;;5095878;28;20189;-90
2021/07/20 04:54:58;;;;;;;13.80;8.87;;;14.40;87.20;;;;;;5095855;28;20231;-89
2021/07/20 04:57:24;;;;;;;14.27;10.13;;;14.40;88.00;;;;;;5113907;28;20642;-89
2021/07/20 04:59:49;;;;;;;10.70;8.53;;;14.50;88.40;;;;;;5112658;28;20169;-89
2021/07/20 05:02:16;;;;;;;17.90;9.97;;;14.50;88.40;;;;;;5095710;28;20174;-89
2021/07/20 05:04:43;;;;;;;19.53;11.10;;;14.60;88.30;;;;;;5095574;28;20184;-89
2021/07/20 05:07:12;;;;;;;16.67;9.90;;;14.60;87.90;;;;;;5114137;28;20257;-89
2021/07/20 05:09:38;;;;;;;14.77;9.40;;;14.70;87.80;;;;;;5114833;28;20229;-89
2021/07/20 05:12:06;;;;;;;14.03;9.40;;;14.70;87.90;;;;;;5095411;28;20719;-89
2021/07/20 05:14:33;;;;;;;15.00;8.90;;;14.70;87.80;;;;;;5095394;28;20197;-89
2021/07/20 05:16:58;;;;;;;17.97;9.93;;;14.80;87.70;;;;;;5113698;28;20181;-89
2021/07/20 05:19:25;;;;;;;16.23;9.67;;;14.80;87.50;;;;;;5113630;28;20190;-89
2021/07/20 05:21:51;;;;;;;14.77;9.10;;;14.80;87.00;;;;;;5113691;28;20654;-89
2021/07/20 05:24:17;;;;;;;14.03;9.23;;;14.90;87.10;;;;;;5096035;28;20219;-89
2021/07/20 05:26:45;;;;;;;17.27;9.50;;;14.90;87.40;;;;;;5113628;28;20178;-89
2021/07/20 05:29:17;;;;;;;14.27;10.27;;;15.00;87.40;;;;;;5113654;28;20209;-89
2021/07/20 05:31:46;;;;;;;17.17;10.07;;;15.10;86.70;;;;;;5095335;28;20198;-89
2021/07/20 05:34:14;;;;;;;16.13;9.63;;;15.10;86.70;;;;;;5113466;28;20180;-89
2021/07/20 05:36:40;;;;;;;14.90;10.00;;;15.10;86.80;;;;;;5095236;28;20180;-90
2021/07/20 05:39:06;;;;;;;11.43;8.67;;;15.20;87.20;;;;;;5113551;28;20584;-89
2021/07/20 05:41:32;;;;;;;13.13;9.87;;;15.00;86.70;;;;;;5113788;28;20173;-89
2021/07/20 05:43:58;;;;;;;14.43;10.37;;;15.00;86.30;;;;;;5115201;28;20713;-89
2021/07/20 05:46:25;;;;;;;17.87;9.90;;;15.00;86.50;;;;;;5116639;28;20178;-89
2021/07/20 05:48:52;;;;;;;15.20;10.23;;;15.10;86.70;;;;;;5117710;28;20228;-89
2021/07/20 05:51:19;;;;;;;12.47;9.03;;;15.10;86.80;;;;;;5118177;28;20254;-89
2021/07/20 05:53:45;;;;;;;20.33;8.77;;;15.20;86.60;;;;;;5117733;28;20526;-89
2021/07/20 05:56:11;;;;;;;12.93;7.70;;;15.30;86.00;;;;;;5117745;28;20629;-89
2021/07/20 05:58:37;;;;;;;14.03;7.73;;;15.40;85.60;;;;;;5117467;28;20197;-89
2021/07/20 06:01:04;;;;;;;26.90;7.87;;;15.50;85.60;;;;;;5099103;28;20555;-89
2021/07/20 06:03:32;;;;;;;14.32;8.38;;;15.60;85.20;;;;;;5098662;28;20417;-88
2021/07/20 06:05:59;;;;;;;15.30;7.85;;;15.70;84.90;;;;;;5117130;28;20174;-88
2021/07/20 06:08:27;;;;;;;26.83;9.80;;;15.80;83.50;;;;;;5098711;28;20271;-88
2021/07/20 06:10:55;;;;;;;13.23;5.85;;;15.80;83.10;;;;;;5098683;28;20579;-88
2021/07/20 06:13:23;;;;;;;15.35;7.75;;;15.90;82.50;;;;;;5098732;28;20201;-88
2021/07/20 06:15:50;;;;;;;15.40;5.93;;;15.90;82.60;;;;;;5098722;28;20280;-88
2021/07/20 06:18:16;;;;;;;11.15;6.18;;;16.00;81.90;;;;;;5116754;28;20665;-88
2021/07/20 06:20:49;;;;;;;9.75;6.30;;;16.10;82.10;;;;;;5098903;28;20170;-88
2021/07/20 06:23:15;;;;;;;13.38;5.70;;;16.10;81.40;;;;;;5098849;28;20162;-89
2021/07/20 06:25:41;;;;;;;11.77;6.03;;;16.20;81.80;;;;;;5098420;28;20182;-88
2021/07/20 06:28:08;;;;;;;10.95;6.15;;;16.20;80.30;;;;;;5098373;28;20190;-88
2021/07/20 06:30:34;;;;;;;15.80;6.75;;;16.20;80.30;;;;;;5098871;28;20569;-88
2021/07/20 06:33:00;;;;;;;13.80;7.13;;;16.30;80.50;;;;;;5116521;28;20234;-88
2021/07/20 06:35:26;;;;;;;15.13;6.75;;;16.30;79.70;;;;;;5098910;28;20166;-88
2021/07/20 06:37:52;;;;;;;10.82;6.35;;;16.30;80.00;;;;;;5098287;28;20194;-88
2021/07/20 06:40:19;;;;;;;11.13;5.70;;;16.40;78.90;;;;;;5098844;28;20174;-88
2021/07/20 06:42:46;;;;;;;7.95;5.78;;;16.60;78.30;;;;;;5098171;28;20181;-88
2021/07/20 06:45:14;;;;;;;12.88;5.10;;;16.70;77.60;;;;;;5098065;28;20260;-88
2021/07/20 06:47:46;;;;;;;10.93;5.97;;;16.70;75.80;;;;;;5097944;28;20212;-88
2021/07/20 06:50:15;;;;;;;11.63;6.28;;;16.70;75.30;;;;;;5116151;28;20545;-88
2021/07/20 06:52:42;;;;;;;8.73;6.15;;;16.70;74.80;;;;;;5098276;28;20170;-88
2021/07/20 06:55:08;;;;;;;8.38;5.80;;;16.80;75.00;;;;;;5097211;28;20543;-88
2021/07/20 06:57:37;;;;;;;12.18;6.05;;;16.90;74.80;;;;;;5097827;28;20638;-88
2021/07/20 07:00:06;;;;;;;8.70;6.60;;;16.90;73.90;;;;;;5097805;28;20550;-88
2021/07/20 07:02:33;;;;;;;13.05;6.63;;;17.00;74.30;;;;;;5097764;28;20265;-88
2021/07/20 07:05:04;;;;;;;10.85;5.88;;;17.00;74.20;;;;;;5097628;28;20186;-88
2021/07/20 07:07:30;;;;;;;8.23;6.07;;;17.00;73.30;;;;;;5097661;28;20266;-88
2021/07/20 07:09:58;;;;;;;12.10;6.28;;;17.00;75.00;;;;;;5097652;28;20182;-88
2021/07/20 07:12:25;;;;;;;9.50;5.97;;;17.00;74.80;;;;;;5097517;28;20202;-88
2021/07/20 07:14:52;;;;;;;11.52;6.00;;;17.20;75.60;;;;;;5097592;28;20197;-88
2021/07/20 07:17:18;;;;;;;14.30;6.50;;;17.20;75.40;;;;;;5097445;28;20545;-88
2021/07/20 07:19:48;;;;;;;10.52;6.35;;;17.10;75.50;;;;;;5115628;28;20162;-88
2021/07/20 07:22:17;;;;;;;10.75;5.13;;;17.30;76.00;;;;;;5115688;28;20154;-88
2021/07/20 07:24:45;;;;;;;8.65;4.88;;;17.40;74.10;;;;;;5115545;28;20178;-88
2021/07/20 07:27:13;;;;;;;11.45;5.20;;;17.30;74.00;;;;;;5115483;28;20199;-88
2021/07/20 07:29:40;;;;;;;7.32;5.28;;;17.20;75.50;;;;;;5115375;28;20224;-88
2021/07/20 07:32:06;;;;;;;10.88;4.63;;;17.20;74.60;;;;;;5115369;28;20222;-88
2021/07/20 07:34:31;;;;;;;10.18;5.82;;;17.20;74.50;;;;;;5097034;28;20178;-88
2021/07/20 07:36:59;;;;;;;7.05;5.30;;;17.10;73.30;;;;;;5115347;28;20569;-87
2021/07/20 07:39:26;;;;;;;8.27;5.32;;;17.10;74.00;;;;;;5115148;28;20273;-87
2021/07/20 07:41:53;;;;;;;8.68;6.82;;;17.10;72.70;;;;;;5096991;28;20645;-87
2021/07/20 07:44:21;;;;;;;11.48;6.78;;;17.40;74.00;;;;;;5115097;28;20182;-88
2021/07/20 07:46:50;;;;;;;10.50;6.90;;;17.40;73.50;;;;;;5115118;28;20518;-88
2021/07/20 07:49:16;;;;;;;11.50;6.88;;;17.50;73.00;;;;;;5096761;28;20198;-87
2021/07/20 07:51:44;;;;;;;14.88;6.85;;;17.80;72.10;;;;;;5115200;28;20198;-88
2021/07/20 07:54:12;;;;;;;9.35;6.65;;;17.80;71.70;;;;;;5096741;28;20170;-87
2021/07/20 07:56:38;;;;;;;9.30;6.15;;;17.90;71.80;;;;;;5096921;28;20625;-88
2021/07/20 07:59:05;;;;;;;11.05;6.55;;;17.90;71.30;;;;;;5097403;28;20559;-87
2021/07/20 08:01:33;;;;;;;9.80;5.65;;;17.80;72.30;;;;;;5097515;28;20530;-88
2021/07/20 08:04:00;;;;;;;10.68;6.20;;;18.00;70.20;;;;;;5096480;28;20188;-88
2021/07/20 08:06:29;;;;;;;11.02;6.50;;;18.00;70.90;;;;;;5114546;28;20174;-88
2021/07/20 08:08:58;;;;;;;9.77;6.40;;;18.20;69.40;;;;;;5113990;28;20197;-88
2021/07/20 08:11:25;;;;;;;8.82;6.40;;;18.20;70.50;;;;;;5096325;28;20198;-88
2021/07/20 08:13:53;;;;;;;11.07;6.30;;;18.20;69.90;;;;;;5114994;28;20589;-88
2021/07/20 08:16:21;;;;;;;8.55;5.78;;;18.10;69.30;;;;;;5096341;28;20180;-88
2021/07/20 08:18:48;;;;;;;9.80;6.25;;;18.00;69.20;;;;;;5114450;28;20186;-88
2021/07/20 08:21:14;;;;;;;10.23;6.22;;;18.20;68.80;;;;;;5096213;28;20174;-87
2021/07/20 08:23:41;;;;;;;9.93;6.15;;;18.30;68.70;;;;;;5096229;28;20209;-87
2021/07/20 08:26:19;;;;;;;8.63;5.90;;;18.20;67.30;;;;;;5096122;28;20261;-87
2021/07/20 08:28:58;;;;;;;10.85;7.13;;;17.90;67.30;;;;;;5095974;28;20598;-86
2021/07/20 08:31:26;;;;;;;10.63;6.13;;;18.00;68.70;;;;;;5114506;28;20182;-87
2021/07/20 08:33:56;;;;;;;11.85;6.70;;;18.00;68.50;;;;;;5095950;28;20227;-87
2021/07/20 08:36:24;;;;;;;11.10;6.47;;;18.30;66.70;;;;;;5096860;28;20492;-87
2021/07/20 08:38:52;;;;;;;11.45;7.00;;;18.30;67.50;;;;;;5095792;28;20197;-87
2021/07/20 08:41:32;;;;;;;8.30;6.63;;;18.30;66.20;;;;;;5114104;28;20170;-87
2021/07/20 08:44:35;;;;;;;13.20;7.22;;;18.20;65.60;;;;;;5096004;28;20208;-88
2021/07/20 08:47:46;;;;;;;8.80;6.88;;;18.30;65.80;;;;;;5096453;28;20215;-88
2021/07/20 08:50:49;;;;;;;8.25;6.28;;;18.30;65.50;;;;;;5089496;28;20182;-88
2021/07/20 08:53:53;;;;;;;10.98;6.85;;;18.70;63.70;;;;;;5095718;28;20177;-87
2021/07/20 08:56:22;;;;;;;10.30;6.93;;;19.00;64.50;;;;;;5112675;28;20174;-88
2021/07/20 08:58:57;;;;;;;8.75;6.35;;;19.10;64.80;;;;;;5095658;28;20231;-87
2021/07/20 09:01:29;;;;;;;9.23;6.43;;;19.10;63.60;;;;;;5095811;28;20185;-88
2021/07/20 09:04:30;;;;;;;26.35;7.60;;;19.30;62.10;;;;;;5095821;28;20158;-90
2021/07/20 09:07:06;;;;;;;9.75;6.50;;;19.40;61.60;;;;;;5096479;28;20162;-90
2021/07/20 09:09:39;;;;;;;9.90;6.63;;;19.40;63.20;;;;;;5096114;28;20216;-90
2021/07/20 09:12:14;;;;;;;9.25;6.65;;;19.50;64.00;;;;;;5114806;28;20192;-90
2021/07/20 09:14:47;;;;;;;9.35;6.55;;;19.60;63.60;;;;;;5096210;28;20249;-91
2021/07/20 09:17:18;;;;;;;9.70;6.63;;;19.80;63.50;;;;;;5096842;28;20172;-90
2021/07/20 09:20:04;;;;;;;8.68;5.93;;;19.80;62.10;;;;;;5118023;28;20220;-90
2021/07/20 09:22:55;;;;;;;12.07;6.47;;;20.00;62.80;;;;;;5101680;28;20184;-90
2021/07/20 09:25:35;;;;;;;10.45;6.25;;;19.80;62.00;;;;;;5119612;28;20235;-91
2021/07/20 09:28:05;;;;;;;10.80;6.50;;;20.00;62.60;;;;;;5100558;28;20200;-90
2021/07/20 09:30:39;;;;;;;9.90;6.20;;;19.70;63.50;;;;;;5100290;28;20174;-90
2021/07/20 09:33:24;;;;;;;12.10;6.45;;;19.90;63.60;;;;;;5099973;28;20193;-90
2021/07/20 09:35:54;;;;;;;8.77;6.03;;;19.90;63.60;;;;;;5100747;28;20166;-90
2021/07/20 09:38:58;;;;;;;11.00;6.60;;;20.20;60.90;;;;;;5118331;28;20189;-90
2021/07/20 09:41:35;;;;;;;10.75;6.28;;;20.20;61.80;;;;;;5099709;28;20174;-90
2021/07/20 09:44:21;;;;;;;9.88;5.97;;;20.30;60.50;;;;;;5099683;28;20170;-90
2021/07/20 09:47:02;;;;;;;9.60;6.72;;;20.40;60.20;;;;;;5118059;28;20154;-90
2021/07/20 09:49:54;;;;;;;12.18;6.80;;;20.30;61.20;;;;;;5099831;28;20201;-90
2021/07/20 09:52:39;;;;;;;7.05;6.15;;;19.80;62.60;;;;;;5117543;28;20190;-90
2021/07/20 09:55:38;;;;;;;9.30;6.25;;;19.80;62.90;;;;;;5099618;28;20162;-90
2021/07/20 09:58:22;;;;;;;10.35;7.57;;;20.10;61.90;;;;;;5099405;28;20661;-90
2021/07/20 10:00:50;;;;;;;9.57;6.65;;;20.40;62.30;;;;;;5099164;28;20173;-90
2021/07/20 10:03:30;;;;;;;10.52;6.80;;;20.20;62.50;;;;;;5099497;28;20198;-90
2021/07/20 10:06:26;;;;;;;9.00;6.57;;;20.50;63.20;;;;;;5099308;28;20648;-90
2021/07/20 10:08:59;;;;;;;13.15;7.13;;;20.60;62.00;;;;;;5099305;28;20221;-90
2021/07/20 10:11:44;;;;;;;8.73;6.43;;;20.60;62.40;;;;;;5099644;28;20319;-90
2021/07/20 10:14:30;;;;;;;8.05;5.95;;;20.90;62.50;;;;;;5099289;28;20174;-90
2021/07/20 10:17:24;;;;;;;10.63;6.25;;;21.20;62.10;;;;;;5100074;28;20162;-90
2021/07/20 10:20:11;;;;;;;6.97;5.85;;;20.80;61.20;;;;;;5099382;28;20166;-90
2021/07/20 10:22:45;;;;;;;8.70;6.32;;;20.90;61.90;;;;;;5099138;28;20158;-90
2021/07/20 10:25:21;;;;;;;10.48;6.22;;;20.80;62.10;;;;;;5099149;28;20248;-90
2021/07/20 10:27:56;;;;;;;7.97;5.70;;;20.90;60.00;;;;;;5099085;28;20189;-90
2021/07/20 10:30:23;;;;;;;7.88;5.88;;;20.70;58.60;;;;;;5097507;28;20177;-90
2021/07/20 10:33:46;;;;;;;9.15;6.10;;;20.10;60.20;;;;;;5117183;28;20713;-90
2021/07/20 10:36:19;;;;;;;7.60;6.05;;;20.30;61.40;;;;;;5033976;28;20177;-90
2021/07/20 10:38:52;;;;;;;8.45;6.47;;;20.30;61.10;;;;;;5017287;28;20727;-90
2021/07/20 10:41:56;;;;;;;12.77;6.78;;;20.90;58.70;;;;;;5063528;28;20185;-89
2021/07/20 10:44:31;;;;;;;9.60;6.07;;;21.20;58.40;;;;;;5067144;28;20223;-90
2021/07/20 10:47:01;;;;;;;9.98;5.80;;;20.90;61.70;;;;;;5098119;28;20637;-90
2021/07/20 10:49:49;;;;;;;10.40;6.00;;;21.20;60.30;;;;;;5116263;28;20273;-90
2021/07/20 10:52:41;;;;;;;9.02;6.43;;;21.30;61.20;;;;;;5098065;28;20190;-90
2021/07/20 10:55:25;;;;;;;12.32;6.78;;;21.00;61.80;;;;;;5069913;28;20178;-90
2021/07/20 10:58:06;;;;;;;12.43;6.80;;;21.80;61.90;;;;;;5097853;28;20197;-90
2021/07/20 11:01:05;;;;;;;10.75;6.57;;;21.80;57.80;;;;;;5097825;28;20154;-90
2021/07/20 11:03:52;;;;;;;9.50;6.28;;;21.20;60.20;;;;;;5098064;28;20573;-92
2021/07/20 11:06:21;;;;;;;9.68;6.50;;;21.70;60.20;;;;;;5098126;28;20170;-91
2021/07/20 11:08:53;;;;;;;11.18;6.53;;;21.30;59.20;;;;;;5097887;28;20213;-92
2021/07/20 11:11:24;;;;;;;7.20;6.05;;;21.80;59.80;;;;;;5098139;28;20693;-92
2021/07/20 11:13:54;;;;;;;8.95;6.80;;;22.30;58.50;;;;;;5098273;28;20543;-92
2021/07/20 11:16:22;;;;;;;9.18;6.60;;;22.20;59.60;;;;;;5097810;28;20265;-92
2021/07/20 11:18:51;;;;;;;7.85;6.63;;;22.10;58.00;;;;;;5097588;28;20669;-91
2021/07/20 11:21:21;;;;;;;9.73;6.78;;;22.00;59.50;;;;;;5116198;28;20175;-91
2021/07/20 11:23:48;;;;;;;12.65;7.82;;;22.20;58.90;;;;;;5097642;28;20193;-91
2021/07/20 11:26:16;;;;;;;9.40;7.30;;;22.40;58.60;;;;;;5115748;28;20177;-92
2021/07/20 11:28:46;;;;;;;9.88;7.03;;;22.30;58.50;;;;;;5097306;28;20224;-91
2021/07/20 11:31:20;;;;;;;9.43;7.82;;;21.80;60.80;;;;;;5097689;28;20695;-91
2021/07/20 11:33:51;;;;;;;11.00;8.02;;;21.70;60.80;;;;;;5097478;28;20184;-91
2021/07/20 11:36:24;;;;;;;9.70;7.75;;;22.00;60.20;;;;;;5097578;28;20170;-92
2021/07/20 11:38:54;;;;;;;16.38;8.00;;;21.80;61.30;;;;;;5097975;28;20196;-91
2021/07/20 11:41:29;;;;;;;10.20;6.80;;;21.80;60.30;;;;;;5097959;28;20162;-91
2021/07/20 11:44:03;;;;;;;10.77;7.68;;;21.10;62.20;;;;;;5097484;28;20171;-91
2021/07/20 11:46:41;;;;;;;10.25;7.85;;;20.70;65.60;;;;;;5097428;28;20184;-92
2021/07/20 11:49:20;;;;;;;10.95;7.70;;;21.00;64.50;;;;;;5097077;28;20696;-92
2021/07/20 11:51:52;;;;;;;12.27;8.45;;;20.90;64.60;;;;;;5097119;28;20214;-92
2021/07/20 11:54:36;;;;;;;14.38;6.95;;;21.20;65.10;;;;;;5097173;28;20172;-92
2021/07/20 11:57:08;;;;;;;10.43;7.20;;;22.00;60.60;;;;;;5097246;28;20188;-91
2021/07/20 12:00:08;;;;;;;9.35;5.85;;;22.40;62.50;;;;;;5097717;28;20197;-93
2021/07/20 12:03:11;;;;;;;8.25;5.70;;;22.40;58.80;;;;;;5088759;28;20178;-91
2021/07/20 12:06:11;;;;;;;8.75;6.22;;;22.30;59.60;;;;;;5098041;28;20192;-91
2021/07/20 12:09:10;;;;;;;8.05;6.32;;;22.00;60.30;;;;;;5096519;28;20205;-91
2021/07/20 12:11:39;;;;;;;8.75;6.95;;;22.40;59.90;;;;;;5098376;28;20684;-91
2021/07/20 12:14:07;;;;;;;10.13;6.43;;;22.30;59.10;;;;;;5098471;28;20169;-90
2021/07/20 12:16:41;;;;;;;11.02;7.10;;;22.10;58.00;;;;;;5097798;28;20261;-90
2021/07/20 12:19:06;;;;;;;10.02;6.82;;;21.70;60.90;;;;;;5096509;28;20224;-90
2021/07/20 12:21:34;;;;;;;10.52;7.03;;;21.80;61.80;;;;;;5097469;28;20170;-90
2021/07/20 12:24:12;;;;;;;18.67;7.43;;;22.30;58.30;;;;;;5097701;28;20306;-90
2021/07/20 12:26:39;;;;;;;10.48;7.15;;;22.20;61.20;;;;;;5096511;28;20227;-90
2021/07/20 12:29:09;;;;;;;11.05;6.88;;;22.40;60.80;;;;;;5114603;28;20240;-90
2021/07/20 12:31:36;;;;;;;10.05;7.15;;;22.20;61.40;;;;;;5096499;28;20205;-89
2021/07/20 12:34:05;;;;;;;12.68;7.22;;;22.10;60.80;;;;;;5096664;28;20162;-91
2021/07/20 12:36:31;;;;;;;8.30;6.65;;;22.20;61.50;;;;;;5115127;28;20645;-91
2021/07/20 12:39:12;;;;;;;9.95;6.72;;;22.70;60.90;;;;;;5096335;28;20741;-90
2021/07/20 12:41:42;;;;;;;8.68;7.00;;;22.50;58.70;;;;;;5096277;28;20166;-91
2021/07/20 12:44:08;;;;;;;11.95;7.78;;;22.30;59.80;;;;;;5114386;28;20573;-91
2021/07/20 12:46:36;;;;;;;10.35;7.32;;;22.80;59.40;;;;;;5095954;28;20181;-90
2021/07/20 12:49:03;;;;;;;11.73;7.07;;;22.70;59.50;;;;;;5114164;28;20190;-90
2021/07/20 12:51:29;;;;;;;11.25;6.78;;;22.50;60.20;;;;;;5114177;28;20228;-90
2021/07/20 12:53:55;;;;;;;11.13;7.43;;;22.90;58.10;;;;;;5095976;28;20312;-90
2021/07/20 12:56:23;;;;;;;10.77;7.03;;;22.20;59.80;;;;;;5114154;28;20166;-90
2021/07/20 12:58:51;;;;;;;9.02;6.80;;;21.90;62.20;;;;;;5095809;28;20194;-90
2021/07/20 13:01:20;;;;;;;9.88;7.15;;;22.40;61.20;;;;;;5095818;28;20196;-90
2021/07/20 13:03:46;;;;;;;8.30;6.78;;;22.60;60.10;;;;;;5095954;28;20287;-91
2021/07/20 13:06:19;;;;;;;11.48;7.65;;;22.20;59.90;;;;;;5096017;28;20185;-90
2021/07/20 13:08:48;;;;;;;9.55;7.35;;;22.10;59.30;;;;;;5095770;28;20290;-88